createdAt,value
2023-12-30T00:01:36.344Z,100525.72
2023-12-30T00:04:03.281Z,100528.66
2023-12-30T00:06:30.081Z,100528.44
2023-12-30T00:08:56.727Z,100542.34
2023-12-30T00:11:23.534Z,100535.47
2023-12-30T00:13:50.272Z,100531.31
2023-12-30T00:16:16.925Z,100532.38
2023-12-30T00:18:43.665Z,100537.16
2023-12-30T00:21:12.074Z,100533.41
2023-12-30T00:23:45.506Z,100535.69
2023-12-30T00:26:26.548Z,100540.25
2023-12-30T00:28:54.509Z,100535.25
2023-12-30T00:31:25.795Z,100539.44
2023-12-30T00:33:54.181Z,100543.63
2023-12-30T00:36:20.823Z,100549.91
2023-12-30T00:38:47.947Z,100555.53
2023-12-30T00:41:14.926Z,100559.69
2023-12-30T00:43:43.346Z,100553.91
2023-12-30T00:46:10.521Z,100560.94
2023-12-30T00:48:37.169Z,100556.19
2023-12-30T00:51:04.263Z,100548.50
2023-12-30T00:53:31.075Z,100547.88
2023-12-30T00:55:58.558Z,100560.81
2023-12-30T00:58:25.959Z,100554.59
2023-12-30T01:00:53.187Z,100551.44
2023-12-30T01:03:19.885Z,100552.25
2023-12-30T01:05:46.943Z,100557.84
2023-12-30T01:08:13.728Z,100566.38
2023-12-30T01:10:40.800Z,100568.91
2023-12-30T01:13:07.722Z,100577.28
2023-12-30T01:15:34.536Z,100586.00
2023-12-30T01:18:01.498Z,100582.25
2023-12-30T01:20:28.167Z,100586.19
2023-12-30T01:22:54.813Z,100577.69
2023-12-30T01:25:21.593Z,100593.94
2023-12-30T01:27:48.291Z,100582.28
2023-12-30T01:30:15.172Z,100587.09
2023-12-30T01:32:41.959Z,100591.44
2023-12-30T01:35:08.785Z,100593.13
2023-12-30T01:37:35.845Z,100591.44
2023-12-30T01:40:03.794Z,100590.41
2023-12-30T01:42:30.390Z,100585.84
2023-12-30T01:44:56.933Z,100580.84
2023-12-30T01:47:24.313Z,100585.41
2023-12-30T01:49:51.884Z,100592.50
2023-12-30T01:52:19.172Z,100588.94
2023-12-30T01:54:46.179Z,100601.41
2023-12-30T01:57:13.194Z,100599.13
2023-12-30T01:59:40.930Z,100607.47
2023-12-30T02:02:07.822Z,100609.16
2023-12-30T02:04:34.664Z,100615.84
2023-12-30T02:07:01.293Z,100616.28
2023-12-30T02:09:27.866Z,100624.22
2023-12-30T02:11:54.561Z,100625.91
2023-12-30T02:14:28.906Z,100629.22
2023-12-30T02:16:55.588Z,100634.22
2023-12-30T02:19:22.411Z,100626.13
2023-12-30T02:21:50.090Z,100628.00
2023-12-30T02:24:16.984Z,100631.91
2023-12-30T02:26:43.772Z,100630.66
2023-12-30T02:29:10.706Z,100628.81
2023-12-30T02:31:41.141Z,100638.97
2023-12-30T02:34:07.904Z,100643.97
2023-12-30T02:36:34.719Z,100641.47
2023-12-30T02:39:01.297Z,100639.41
2023-12-30T02:41:28.266Z,100644.16
2023-12-30T02:44:02.395Z,100643.34
2023-12-30T02:46:29.031Z,100655.41
2023-12-30T02:48:55.750Z,100657.91
2023-12-30T02:51:22.357Z,100649.19
2023-12-30T02:53:48.930Z,100651.22
2023-12-30T02:56:23.168Z,100658.94
2023-12-30T02:58:51.264Z,100658.13
2023-12-30T03:01:17.842Z,100665.78
2023-12-30T03:03:44.576Z,100663.50
2023-12-30T03:06:14.650Z,100666.22
2023-12-30T03:08:41.570Z,100673.03
2023-12-30T03:11:11.467Z,100662.25
2023-12-30T03:13:38.251Z,100667.88
2023-12-30T03:16:05.518Z,100670.75
2023-12-30T03:18:32.502Z,100667.44
2023-12-30T03:20:59.807Z,100681.97
2023-12-30T03:23:26.461Z,100679.50
2023-12-30T03:25:53.157Z,100685.91
2023-12-30T03:28:19.862Z,100680.09
2023-12-30T03:30:46.939Z,100684.47
2023-12-30T03:33:13.776Z,100686.75
2023-12-30T03:35:40.493Z,100687.56
2023-12-30T03:38:07.071Z,100694.41
2023-12-30T03:40:33.754Z,100692.13
2023-12-30T03:43:00.684Z,100687.56
2023-12-30T03:45:27.565Z,100687.97
2023-12-30T03:47:54.299Z,100690.88
2023-12-30T03:50:22.020Z,100688.78
2023-12-30T03:52:48.715Z,100693.97
2023-12-30T03:55:15.428Z,100695.84
2023-12-30T03:57:41.966Z,100689.59
2023-12-30T04:00:09.015Z,100700.81
2023-12-30T04:02:35.822Z,100696.66
2023-12-30T04:05:02.417Z,100707.47
2023-12-30T04:07:29.132Z,100703.47
2023-12-30T04:09:55.842Z,100709.72
2023-12-30T04:12:22.469Z,100706.19
2023-12-30T04:14:49.123Z,100713.88
2023-12-30T04:17:15.656Z,100715.31
2023-12-30T04:19:42.233Z,100712.78
2023-12-30T04:22:08.937Z,100722.38
2023-12-30T04:24:35.565Z,100719.25
2023-12-30T04:27:02.115Z,100712.16
2023-12-30T04:29:30.067Z,100714.03
2023-12-30T04:31:56.698Z,100720.66
2023-12-30T04:34:23.912Z,100721.69
2023-12-30T04:36:50.647Z,100717.97
2023-12-30T04:39:17.251Z,100726.44
2023-12-30T04:41:43.885Z,100734.09
2023-12-30T04:44:10.439Z,100730.59
2023-12-30T04:46:37.473Z,100740.13
2023-12-30T04:49:05.071Z,100737.19
2023-12-30T04:51:31.750Z,100746.78
2023-12-30T04:53:58.404Z,100744.50
2023-12-30T04:56:24.978Z,100744.88
2023-12-30T04:58:52.216Z,100736.97
2023-12-30T05:01:18.948Z,100751.31
2023-12-30T05:03:45.649Z,100747.97
2023-12-30T05:06:22.783Z,100743.59
2023-12-30T05:08:49.913Z,100748.78
2023-12-30T05:11:16.550Z,100756.88
2023-12-30T05:13:44.089Z,100758.78
2023-12-30T05:16:10.923Z,100756.47
2023-12-30T05:18:37.532Z,100755.81
2023-12-30T05:21:05.084Z,100760.59
2023-12-30T05:23:34.717Z,100764.53
2023-12-30T05:26:01.302Z,100767.22
2023-12-30T05:28:27.876Z,100767.41
2023-12-30T05:30:54.592Z,100774.69
2023-12-30T05:33:21.290Z,100775.91
2023-12-30T05:35:47.898Z,100767.00
2023-12-30T05:38:14.689Z,100770.50
2023-12-30T05:40:41.295Z,100774.25
2023-12-30T05:43:08.002Z,100774.69
2023-12-30T05:45:35.405Z,100791.47
2023-12-30T05:48:03.437Z,100784.19
2023-12-30T05:50:30.127Z,100794.75
2023-12-30T05:52:57.484Z,100792.25
2023-12-30T05:55:24.085Z,100787.06
2023-12-30T05:57:50.762Z,100789.94
2023-12-30T06:00:20.341Z,100790.38
2023-12-30T06:02:47.187Z,100793.09
2023-12-30T06:05:13.756Z,100791.41
2023-12-30T06:07:40.393Z,100795.16
2023-12-30T06:10:08.383Z,100790.16
2023-12-30T06:12:35.623Z,100794.03
2023-12-30T06:15:02.165Z,100794.44
2023-12-30T06:17:28.825Z,100801.34
2023-12-30T06:19:55.429Z,100804.22
2023-12-30T06:22:22.026Z,100818.72
2023-12-30T06:24:48.644Z,100812.91
2023-12-30T06:27:15.226Z,100824.31
2023-12-30T06:29:41.909Z,100824.50
2023-12-30T06:32:08.638Z,100836.13
2023-12-30T06:34:35.988Z,100834.28
2023-12-30T06:37:02.692Z,100830.94
2023-12-30T06:39:29.347Z,100829.25
2023-12-30T06:42:01.494Z,100826.97
2023-12-30T06:44:28.535Z,100819.25
2023-12-30T06:46:55.198Z,100811.00
2023-12-30T06:49:21.922Z,100818.25
2023-12-30T06:51:48.694Z,100818.25
2023-12-30T06:54:15.498Z,100824.47
2023-12-30T06:56:42.127Z,100824.47
2023-12-30T06:59:08.721Z,100826.91
2023-12-30T07:01:38.763Z,100833.50
2023-12-30T07:04:05.450Z,100847.00
2023-12-30T07:06:32.259Z,100845.34
2023-12-30T07:08:58.886Z,100845.53
2023-12-30T07:11:25.519Z,100858.00
2023-12-30T07:13:52.970Z,100854.47
2023-12-30T07:16:20.105Z,100853.81
2023-12-30T07:18:46.780Z,100866.66
2023-12-30T07:21:13.362Z,100866.00
2023-12-30T07:23:39.990Z,100871.41
2023-12-30T07:26:06.634Z,100889.25
2023-12-30T07:28:33.321Z,100881.19
2023-12-30T07:30:59.990Z,100877.63
2023-12-30T07:33:26.721Z,100891.97
2023-12-30T07:35:54.596Z,100891.69
2023-12-30T07:38:21.509Z,100898.13
2023-12-30T07:40:48.192Z,100904.53
2023-12-30T07:43:14.771Z,100909.28
2023-12-30T07:45:41.445Z,100910.31
2023-12-30T07:48:08.209Z,100920.25
2023-12-30T07:50:35.492Z,100923.19
2023-12-30T07:53:02.216Z,100925.72
2023-12-30T07:55:28.998Z,100928.78
2023-12-30T07:57:55.699Z,100930.00
2023-12-30T08:00:22.611Z,100932.72
2023-12-30T08:02:49.204Z,100943.28
2023-12-30T08:05:15.981Z,100946.19
2023-12-30T08:07:42.721Z,100946.38
2023-12-30T08:10:09.495Z,100960.06
2023-12-30T08:12:37.880Z,100966.06
2023-12-30T08:15:05.707Z,100970.84
2023-12-30T08:17:32.392Z,100977.06
2023-12-30T08:19:59.113Z,100983.47
2023-12-30T08:22:25.704Z,100994.09
2023-12-30T08:24:52.493Z,100994.25
2023-12-30T08:27:19.270Z,100994.09
2023-12-30T08:29:45.833Z,100997.78
2023-12-30T08:32:12.524Z,101012.13
2023-12-30T08:34:39.132Z,101011.06
2023-12-30T08:37:09.823Z,101011.91
2023-12-30T08:39:39.895Z,101015.44
2023-12-30T08:42:07.848Z,101013.75
2023-12-30T08:44:39.033Z,101017.13
2023-12-30T08:47:05.977Z,101010.06
2023-12-30T08:49:33.136Z,101004.66
2023-12-30T08:52:00.356Z,101007.56
2023-12-30T08:54:27.031Z,101003.81
2023-12-30T08:56:55.161Z,101007.56
2023-12-30T08:59:23.250Z,101005.69
2023-12-30T09:01:49.891Z,101008.38
2023-12-30T09:04:16.704Z,101011.28
2023-12-30T09:06:43.316Z,101014.81
2023-12-30T09:09:10.054Z,101017.31
2023-12-30T09:11:39.927Z,101018.34
2023-12-30T09:14:06.737Z,101021.03
2023-12-30T09:16:33.828Z,101020.84
2023-12-30T09:19:00.652Z,101019.63
2023-12-30T09:21:27.373Z,101026.31
2023-12-30T09:23:53.953Z,101022.56
2023-12-30T09:26:20.557Z,101028.63
2023-12-30T09:28:47.185Z,101034.50
2023-12-30T09:31:14.304Z,101034.50
2023-12-30T09:33:41.272Z,101030.38
2023-12-30T09:36:09.037Z,101024.97
2023-12-30T09:38:35.655Z,101028.16
2023-12-30T09:41:02.231Z,101021.75
2023-12-30T09:43:29.600Z,101019.88
2023-12-30T09:45:58.175Z,101026.94
2023-12-30T09:48:27.167Z,101033.03
2023-12-30T09:50:58.331Z,101028.94
2023-12-30T09:53:26.219Z,101036.03
2023-12-30T09:55:54.488Z,101031.72
2023-12-30T09:58:22.519Z,101031.53
2023-12-30T10:00:49.693Z,101033.06
2023-12-30T10:03:19.676Z,101039.31
2023-12-30T10:05:46.554Z,101046.25
2023-12-30T10:08:13.750Z,101046.72
2023-12-30T10:10:50.358Z,101051.53
2023-12-30T10:13:27.245Z,101053.66
2023-12-30T10:15:58.815Z,101051.03
2023-12-30T10:18:27.064Z,101063.78
2023-12-30T10:20:53.797Z,101070.84
2023-12-30T10:23:20.377Z,101065.91
2023-12-30T10:25:50.126Z,101068.84
2023-12-30T10:28:17.719Z,101078.03
2023-12-30T10:30:44.401Z,101070.59
2023-12-30T10:33:13.410Z,101068.16
2023-12-30T10:35:41.595Z,101072.53
2023-12-30T10:38:13.492Z,101059.84
2023-12-30T10:40:41.008Z,101059.06
2023-12-30T10:43:09.504Z,101051.69
2023-12-30T10:45:36.729Z,101057.25
2023-12-30T10:48:07.095Z,101056.03
2023-12-30T10:50:37.804Z,101051.91
2023-12-30T10:53:09.410Z,101057.72
2023-12-30T10:55:38.874Z,101061.53
2023-12-30T10:58:19.279Z,101070.28
2023-12-30T11:00:49.957Z,101069.06
2023-12-30T11:03:16.745Z,101075.13
2023-12-30T11:06:07.093Z,101072.03
2023-12-30T11:08:34.492Z,101071.81
2023-12-30T11:11:05.886Z,101075.97
2023-12-30T11:13:36.570Z,101068.72
2023-12-30T11:16:15.187Z,101067.94
2023-12-30T11:18:57.243Z,101066.28
2023-12-30T11:21:40.003Z,101062.75
2023-12-30T11:24:08.923Z,101066.91
2023-12-30T11:26:46.195Z,101066.50
2023-12-30T11:29:21.521Z,101062.53
2023-12-30T11:31:49.729Z,101068.38
2023-12-30T11:34:16.955Z,101070.06
2023-12-30T11:36:44.500Z,101066.19
2023-12-30T11:39:34.448Z,101062.56
2023-12-30T11:42:02.294Z,101061.00
2023-12-30T11:44:29.389Z,101058.91
2023-12-30T11:46:56.261Z,101055.78
2023-12-30T11:49:24.826Z,101057.09
2023-12-30T11:51:52.055Z,101053.38
2023-12-30T11:54:19.275Z,101058.78
2023-12-30T11:56:46.789Z,101057.47
2023-12-30T11:59:13.615Z,101050.78
2023-12-30T12:01:41.191Z,101058.03
2023-12-30T12:04:09.611Z,101044.44
2023-12-30T12:06:37.372Z,101059.44
2023-12-30T12:09:05.391Z,101054.81
2023-12-30T12:11:32.087Z,101055.13
2023-12-30T12:13:59.176Z,101057.63
2023-12-30T12:16:27.694Z,101055.97
2023-12-30T12:18:55.790Z,101049.28
2023-12-30T12:21:22.576Z,101048.22
2023-12-30T12:23:49.230Z,101045.91
2023-12-30T12:26:17.534Z,101048.13
2023-12-30T12:28:44.146Z,101047.31
2023-12-30T12:31:14.209Z,101043.53
2023-12-30T12:33:40.951Z,101036.66
2023-12-30T12:36:07.853Z,101026.88
2023-12-30T12:38:34.674Z,101023.16
2023-12-30T12:41:01.275Z,101023.41
2023-12-30T12:43:27.898Z,101027.09
2023-12-30T12:45:54.908Z,101018.78
2023-12-30T12:48:21.704Z,101015.84
2023-12-30T12:50:48.494Z,101011.47
2023-12-30T12:53:15.133Z,101015.22
2023-12-30T12:55:42.071Z,101013.97
2023-12-30T12:58:08.791Z,101010.44
2023-12-30T13:00:36.236Z,101010.44
2023-12-30T13:03:03.173Z,101016.00
2023-12-30T13:05:29.936Z,101016.41
2023-12-30T13:07:57.411Z,101022.66
2023-12-30T13:10:33.087Z,101014.78
2023-12-30T13:13:00.008Z,101016.00
2023-12-30T13:15:26.879Z,101018.88
2023-12-30T13:17:55.114Z,101010.16
2023-12-30T13:20:21.966Z,101002.28
2023-12-30T13:22:55.784Z,101007.06
2023-12-30T13:25:22.462Z,101013.69
2023-12-30T13:27:49.213Z,101003.69
2023-12-30T13:30:19.165Z,101003.84
2023-12-30T13:32:45.867Z,101002.00
2023-12-30T13:35:12.848Z,100998.91
2023-12-30T13:37:41.734Z,100998.44
2023-12-30T13:40:13.328Z,100992.03
2023-12-30T13:42:41.754Z,100986.84
2023-12-30T13:45:11.056Z,100986.19
2023-12-30T13:47:40.216Z,100983.28
2023-12-30T13:50:25.957Z,100982.47
2023-12-30T13:52:54.964Z,100990.31
2023-12-30T13:55:22.832Z,100984.75
2023-12-30T13:57:53.962Z,100980.78
2023-12-30T14:00:21.541Z,100975.78
2023-12-30T14:02:53.964Z,100972.66
2023-12-30T14:05:30.366Z,100964.34
2023-12-30T14:08:10.068Z,100971.41
2023-12-30T14:10:36.809Z,100963.22
2023-12-30T14:13:03.997Z,100954.47
2023-12-30T14:15:30.753Z,100963.78
2023-12-30T14:17:57.607Z,100967.75
2023-12-30T14:20:24.363Z,100965.91
2023-12-30T14:22:51.031Z,100966.75
2023-12-30T14:25:17.623Z,100969.47
2023-12-30T14:27:44.951Z,100963.19
2023-12-30T14:30:13.105Z,100956.00
2023-12-30T14:32:42.734Z,100957.34
2023-12-30T14:35:10.672Z,100948.50
2023-12-30T14:37:40.445Z,100942.72
2023-12-30T14:40:08.273Z,100937.13
2023-12-30T14:42:36.143Z,100937.13
2023-12-30T14:45:04.451Z,100940.66
2023-12-30T14:47:31.917Z,100947.94
2023-12-30T14:49:58.525Z,100942.72
2023-12-30T14:52:25.199Z,100948.56
2023-12-30T14:55:01.046Z,100943.53
2023-12-30T14:57:29.169Z,100947.53
2023-12-30T14:59:55.714Z,100944.78
2023-12-30T15:02:22.269Z,100942.47
2023-12-30T15:04:48.856Z,100931.09
2023-12-30T15:07:15.722Z,100935.88
2023-12-30T15:09:42.512Z,100936.50
2023-12-30T15:12:09.816Z,100926.94
2023-12-30T15:14:36.391Z,100930.25
2023-12-30T15:17:03.251Z,100932.97
2023-12-30T15:19:29.901Z,100936.69
2023-12-30T15:21:56.578Z,100937.13
2023-12-30T15:24:24.401Z,100939.41
2023-12-30T15:26:52.080Z,100943.97
2023-12-30T15:29:19.718Z,100940.25
2023-12-30T15:31:46.342Z,100933.16
2023-12-30T15:34:13.294Z,100930.03
2023-12-30T15:36:40.061Z,100931.72
2023-12-30T15:39:07.602Z,100925.69
2023-12-30T15:41:34.212Z,100926.88
2023-12-30T15:44:00.954Z,100923.97
2023-12-30T15:46:27.543Z,100925.81
2023-12-30T15:48:54.308Z,100923.78
2023-12-30T15:51:21.289Z,100921.06
2023-12-30T15:53:48.374Z,100927.28
2023-12-30T15:56:14.951Z,100925.44
2023-12-30T15:58:41.818Z,100925.25
2023-12-30T16:01:08.637Z,100922.94
2023-12-30T16:03:36.230Z,100927.94
2023-12-30T16:06:03.012Z,100910.28
2023-12-30T16:08:29.721Z,100912.31
2023-12-30T16:10:56.687Z,100914.41
2023-12-30T16:13:23.313Z,100911.88
2023-12-30T16:15:53.650Z,100916.25
2023-12-30T16:18:20.885Z,100916.88
2023-12-30T16:20:47.640Z,100907.31
2023-12-30T16:23:14.291Z,100907.72
2023-12-30T16:25:41.389Z,100909.81
2023-12-30T16:28:08.074Z,100901.72
2023-12-30T16:30:34.719Z,100903.75
2023-12-30T16:33:01.750Z,100904.81
2023-12-30T16:35:28.997Z,100902.53
2023-12-30T16:37:55.689Z,100899.16
2023-12-30T16:40:22.966Z,100886.91
2023-12-30T16:42:49.550Z,100885.44
2023-12-30T16:45:16.135Z,100892.91
2023-12-30T16:47:42.899Z,100888.75
2023-12-30T16:50:09.801Z,100889.78
2023-12-30T16:52:37.407Z,100889.78
2023-12-30T16:55:04.618Z,100889.53
2023-12-30T16:57:31.244Z,100881.22
2023-12-30T16:59:57.821Z,100880.78
2023-12-30T17:02:24.630Z,100880.38
2023-12-30T17:04:51.425Z,100882.47
2023-12-30T17:07:18.035Z,100878.09
2023-12-30T17:09:44.636Z,100882.22
2023-12-30T17:12:11.519Z,100889.69
2023-12-30T17:14:38.084Z,100870.78
2023-12-30T17:17:04.863Z,100874.97
2023-12-30T17:19:32.914Z,100869.56
2023-12-30T17:21:59.998Z,100874.31
2023-12-30T17:24:26.610Z,100867.25
2023-12-30T17:26:53.347Z,100867.06
2023-12-30T17:29:19.927Z,100873.47
2023-12-30T17:31:46.549Z,100861.66
2023-12-30T17:34:13.261Z,100866.03
2023-12-30T17:36:40.277Z,100857.47
2023-12-30T17:39:07.735Z,100856.25
2023-12-30T17:41:34.643Z,100867.25
2023-12-30T17:44:04.936Z,100867.25
2023-12-30T17:46:32.092Z,100865.78
2023-12-30T17:48:58.694Z,100864.75
2023-12-30T17:51:26.645Z,100855.81
2023-12-30T17:53:53.205Z,100857.03
2023-12-30T17:56:20.398Z,100862.97
2023-12-30T17:58:47.070Z,100859.50
2023-12-30T18:01:13.825Z,100859.56
2023-12-30T18:03:40.998Z,100862.91
2023-12-30T18:06:07.904Z,100847.72
2023-12-30T18:08:34.500Z,100853.56
2023-12-30T18:11:01.107Z,100846.13
2023-12-30T18:13:28.167Z,100839.69
2023-12-30T18:15:54.942Z,100834.53
2023-12-30T18:18:21.817Z,100842.28
2023-12-30T18:20:49.679Z,100837.47
2023-12-30T18:23:16.312Z,100831.63
2023-12-30T18:25:42.950Z,100828.47
2023-12-30T18:28:09.531Z,100827.50
2023-12-30T18:30:36.270Z,100823.31
2023-12-30T18:33:03.231Z,100819.72
2023-12-30T18:35:30.091Z,100815.72
2023-12-30T18:37:56.650Z,100817.78
2023-12-30T18:40:24.095Z,100808.88
2023-12-30T18:42:50.702Z,100803.88
2023-12-30T18:45:17.352Z,100806.75
2023-12-30T18:47:44.413Z,100809.06
2023-12-30T18:50:13.223Z,100800.41
2023-12-30T18:52:39.866Z,100800.91
2023-12-30T18:55:06.932Z,100787.63
2023-12-30T18:57:33.545Z,100798.00
2023-12-30T19:00:00.254Z,100790.72
2023-12-30T19:02:27.074Z,100784.31
2023-12-30T19:04:54.325Z,100785.97
2023-12-30T19:07:20.976Z,100783.47
2023-12-30T19:09:47.851Z,100779.50
2023-12-30T19:12:14.719Z,100785.69
2023-12-30T19:14:41.254Z,100774.41
2023-12-30T19:17:10.007Z,100776.53
2023-12-30T19:19:37.597Z,100768.91
2023-12-30T19:22:06.084Z,100762.25
2023-12-30T19:24:35.630Z,100762.88
2023-12-30T19:27:04.186Z,100756.88
2023-12-30T19:29:30.706Z,100757.28
2023-12-30T19:31:57.264Z,100749.38
2023-12-30T19:34:26.090Z,100745.00
2023-12-30T19:36:53.358Z,100739.59
2023-12-30T19:39:20.021Z,100743.38
2023-12-30T19:41:47.721Z,100734.03
2023-12-30T19:44:14.473Z,100738.03
2023-12-30T19:46:41.458Z,100737.22
2023-12-30T19:49:08.370Z,100728.50
2023-12-30T19:51:35.314Z,100731.41
2023-12-30T19:54:01.871Z,100728.72
2023-12-30T19:56:29.240Z,100725.16
2023-12-30T19:58:55.890Z,100722.63
2023-12-30T20:01:22.718Z,100719.13
2023-12-30T20:03:50.065Z,100718.69
2023-12-30T20:06:17.141Z,100715.16
2023-12-30T20:08:43.821Z,100711.44
2023-12-30T20:11:10.669Z,100706.03
2023-12-30T20:13:38.925Z,100709.75
2023-12-30T20:16:08.403Z,100705.19
2023-12-30T20:18:35.816Z,100701.22
2023-12-30T20:21:05.929Z,100699.34
2023-12-30T20:23:34.627Z,100687.97
2023-12-30T20:26:01.883Z,100681.06
2023-12-30T20:28:28.681Z,100677.38
2023-12-30T20:30:55.365Z,100666.13
2023-12-30T20:33:22.311Z,100673.63
2023-12-30T20:35:48.890Z,100662.22
2023-12-30T20:38:15.599Z,100666.19
2023-12-30T20:40:45.981Z,100667.41
2023-12-30T20:43:13.575Z,100660.56
2023-12-30T20:45:44.464Z,100648.31
2023-12-30T20:48:11.175Z,100641.22
2023-12-30T20:50:38.430Z,100645.59
2023-12-30T20:53:06.686Z,100650.16
2023-12-30T20:55:33.572Z,100642.69
2023-12-30T20:58:00.410Z,100647.47
2023-12-30T21:00:27.043Z,100646.47
2023-12-30T21:02:53.678Z,100645.41
2023-12-30T21:05:20.535Z,100641.69
2023-12-30T21:07:47.229Z,100636.03
2023-12-30T21:10:14.949Z,100636.69
2023-12-30T21:12:41.526Z,100634.19
2023-12-30T21:15:10.623Z,100630.44
2023-12-30T21:17:38.447Z,100623.78
2023-12-30T21:20:06.372Z,100628.34
2023-12-30T21:22:33.001Z,100626.25
2023-12-30T21:25:01.260Z,100626.44
2023-12-30T21:27:29.904Z,100623.97
2023-12-30T21:29:57.107Z,100610.25
2023-12-30T21:32:24.690Z,100602.56
2023-12-30T21:34:51.590Z,100599.25
2023-12-30T21:37:18.232Z,100598.84
2023-12-30T21:39:44.858Z,100589.47
2023-12-30T21:42:11.445Z,100589.91
2023-12-30T21:44:41.680Z,100590.91
2023-12-30T21:47:08.271Z,100586.38
2023-12-30T21:49:38.493Z,100575.59
2023-12-30T21:52:05.246Z,100577.03
2023-12-30T21:54:31.823Z,100573.50
2023-12-30T21:56:58.406Z,100571.81
2023-12-30T21:59:24.930Z,100564.13
2023-12-30T22:01:51.538Z,100559.78
2023-12-30T22:04:18.208Z,100548.16
2023-12-30T22:06:44.793Z,100555.66
2023-12-30T22:09:11.621Z,100561.22
2023-12-30T22:11:38.159Z,100553.34
2023-12-30T22:14:04.715Z,100558.94
2023-12-30T22:16:31.315Z,100556.66
2023-12-30T22:18:57.967Z,100550.22
2023-12-30T22:21:24.703Z,100555.81
2023-12-30T22:23:51.309Z,100553.53
2023-12-30T22:26:18.756Z,100556.44
2023-12-30T22:28:45.401Z,100558.31
2023-12-30T22:31:12.132Z,100551.88
2023-12-30T22:33:38.911Z,100549.38
2023-12-30T22:36:05.740Z,100556.44
2023-12-30T22:38:34.335Z,100546.47
2023-12-30T22:41:01.022Z,100542.94
2023-12-30T22:43:30.190Z,100539.41
2023-12-30T22:45:57.569Z,100530.47
2023-12-30T22:48:24.127Z,100531.53
2023-12-30T22:50:50.837Z,100524.44
2023-12-30T22:53:17.645Z,100526.91
2023-12-30T22:55:44.406Z,100529.19
2023-12-30T22:58:11.384Z,100530.63
2023-12-30T23:00:40.611Z,100525.47
2023-12-30T23:03:07.573Z,100518.81
2023-12-30T23:05:34.501Z,100529.63
2023-12-30T23:08:01.168Z,100517.78
2023-12-30T23:10:28.692Z,100513.59
2023-12-30T23:12:57.469Z,100508.63
2023-12-30T23:15:24.226Z,100503.88
2023-12-30T23:17:51.119Z,100500.09
2023-12-30T23:20:18.002Z,100493.47
2023-12-30T23:22:44.627Z,100492.63
2023-12-30T23:25:11.433Z,100483.69
2023-12-30T23:27:38.122Z,100486.81
2023-12-30T23:30:05.265Z,100473.13
2023-12-30T23:32:34.807Z,100462.53
2023-12-30T23:35:04.508Z,100456.94
2023-12-30T23:37:32.402Z,100446.53
2023-12-30T23:40:00.346Z,100447.38
2023-12-30T23:42:27.661Z,100450.06
2023-12-30T23:44:54.855Z,100439.09
2023-12-30T23:47:21.526Z,100427.47
2023-12-30T23:49:48.102Z,100427.25
2023-12-30T23:52:14.714Z,100424.34
2023-12-30T23:54:41.263Z,100417.69
2023-12-30T23:57:07.877Z,100419.97
2023-12-30T23:59:34.595Z,100421.44
